sensor_id;sensor_type;location;lat;lon;timestamp;P1;durP1;ratioP1;P2;durP2;ratioP2
74512;SDS011;62992;52.052;8.550;2022-12-04T00:00:47;47.25;;;17.90;;
74512;SDS011;62992;52.052;8.550;2022-12-04T00:03:31;45.72;;;16.98;;
74512;SDS011;62992;52.052;8.550;2022-12-04T00:06:16;42.50;;;16.77;;
74512;SDS011;62992;52.052;8.550;2022-12-04T00:09:02;45.80;;;17.40;;
74512;SDS011;62992;52.052;8.550;2022-12-04T00:11:46;38.42;;;15.02;;
74512;SDS011;62992;52.052;8.550;2022-12-04T00:14:31;47.00;;;18.65;;
74512;SDS011;62992;52.052;8.550;2022-12-04T00:17:15;30.30;;;13.13;;
74512;SDS011;62992;52.052;8.550;2022-12-04T00:19:59;40.95;;;16.80;;
74512;SDS011;62992;52.052;8.550;2022-12-04T00:22:43;38.45;;;14.75;;
74512;SDS011;62992;52.052;8.550;2022-12-04T00:25:29;46.92;;;17.05;;
74512;SDS011;62992;52.052;8.550;2022-12-04T00:28:14;42.70;;;16.50;;
74512;SDS011;62992;52.052;8.550;2022-12-04T00:30:59;42.83;;;16.92;;
74512;SDS011;62992;52.052;8.550;2022-12-04T00:33:47;45.75;;;18.70;;
74512;SDS011;62992;52.052;8.550;2022-12-04T00:36:31;48.25;;;15.73;;
74512;SDS011;62992;52.052;8.550;2022-12-04T00:39:16;50.33;;;18.60;;
74512;SDS011;62992;52.052;8.550;2022-12-04T00:41:59;48.65;;;17.55;;
74512;SDS011;62992;52.052;8.550;2022-12-04T00:44:44;42.22;;;17.13;;
74512;SDS011;62992;52.052;8.550;2022-12-04T00:47:28;49.13;;;17.63;;
74512;SDS011;62992;52.052;8.550;2022-12-04T00:50:12;47.28;;;17.65;;
74512;SDS011;62992;52.052;8.550;2022-12-04T00:52:56;47.75;;;17.13;;
74512;SDS011;62992;52.052;8.550;2022-12-04T00:55:41;45.00;;;17.70;;
74512;SDS011;62992;52.052;8.550;2022-12-04T00:58:27;43.15;;;16.65;;
74512;SDS011;62992;52.052;8.550;2022-12-04T01:01:15;39.67;;;15.57;;
74512;SDS011;62992;52.052;8.550;2022-12-04T01:04:00;47.25;;;17.00;;
74512;SDS011;62992;52.052;8.550;2022-12-04T01:06:45;49.53;;;17.77;;
74512;SDS011;62992;52.052;8.550;2022-12-04T01:09:29;44.25;;;16.88;;
74512;SDS011;62992;52.052;8.550;2022-12-04T01:12:14;42.05;;;15.80;;
74512;SDS011;62992;52.052;8.550;2022-12-04T01:14:58;47.08;;;17.65;;
74512;SDS011;62992;52.052;8.550;2022-12-04T01:17:42;40.05;;;16.33;;
74512;SDS011;62992;52.052;8.550;2022-12-04T01:20:28;46.15;;;19.15;;
74512;SDS011;62992;52.052;8.550;2022-12-04T01:23:12;42.97;;;17.20;;
74512;SDS011;62992;52.052;8.550;2022-12-04T01:25:57;48.58;;;18.17;;
74512;SDS011;62992;52.052;8.550;2022-12-04T01:28:42;41.10;;;15.90;;
74512;SDS011;62992;52.052;8.550;2022-12-04T01:31:26;43.08;;;16.92;;
74512;SDS011;62992;52.052;8.550;2022-12-04T01:34:10;41.10;;;15.93;;
74512;SDS011;62992;52.052;8.550;2022-12-04T01:36:54;39.50;;;15.90;;
74512;SDS011;62992;52.052;8.550;2022-12-04T01:39:38;44.95;;;17.52;;
74512;SDS011;62992;52.052;8.550;2022-12-04T01:42:22;49.63;;;18.35;;
74512;SDS011;62992;52.052;8.550;2022-12-04T01:51:22;46.70;;;16.42;;
74512;SDS011;62992;52.052;8.550;2022-12-04T01:54:11;52.15;;;18.73;;
74512;SDS011;62992;52.052;8.550;2022-12-04T01:57:19;48.60;;;16.92;;
74512;SDS011;62992;52.052;8.550;2022-12-04T02:00:07;47.00;;;16.70;;
74512;SDS011;62992;52.052;8.550;2022-12-04T02:02:53;50.58;;;18.67;;
74512;SDS011;62992;52.052;8.550;2022-12-04T02:05:38;46.92;;;16.90;;
74512;SDS011;62992;52.052;8.550;2022-12-04T02:08:22;51.80;;;18.33;;
74512;SDS011;62992;52.052;8.550;2022-12-04T02:15:02;50.17;;;17.73;;
74512;SDS011;62992;52.052;8.550;2022-12-04T02:17:25;44.50;;;16.67;;
74512;SDS011;62992;52.052;8.550;2022-12-04T02:23:32;46.80;;;17.27;;
74512;SDS011;62992;52.052;8.550;2022-12-04T02:26:51;39.50;;;14.55;;
74512;SDS011;62992;52.052;8.550;2022-12-04T02:29:42;46.42;;;16.25;;
74512;SDS011;62992;52.052;8.550;2022-12-04T02:33:06;47.10;;;16.42;;
74512;SDS011;62992;52.052;8.550;2022-12-04T02:36:26;46.58;;;15.75;;
74512;SDS011;62992;52.052;8.550;2022-12-04T02:39:16;48.47;;;14.75;;
74512;SDS011;62992;52.052;8.550;2022-12-04T02:45:02;33.83;;;12.88;;
74512;SDS011;62992;52.052;8.550;2022-12-04T02:47:52;38.83;;;15.05;;
74512;SDS011;62992;52.052;8.550;2022-12-04T02:50:38;42.50;;;15.68;;
74512;SDS011;62992;52.052;8.550;2022-12-04T02:53:31;39.80;;;15.35;;
74512;SDS011;62992;52.052;8.550;2022-12-04T02:56:19;45.70;;;15.55;;
74512;SDS011;62992;52.052;8.550;2022-12-04T02:59:11;33.30;;;14.45;;
74512;SDS011;62992;52.052;8.550;2022-12-04T03:02:01;39.47;;;13.43;;
74512;SDS011;62992;52.052;8.550;2022-12-04T03:04:51;37.78;;;15.57;;
74512;SDS011;62992;52.052;8.550;2022-12-04T03:07:57;35.67;;;15.02;;
74512;SDS011;62992;52.052;8.550;2022-12-04T03:10:50;43.38;;;15.35;;
74512;SDS011;62992;52.052;8.550;2022-12-04T03:13:39;33.50;;;12.70;;
74512;SDS011;62992;52.052;8.550;2022-12-04T03:16:29;35.13;;;14.30;;
74512;SDS011;62992;52.052;8.550;2022-12-04T03:19:23;37.60;;;13.10;;
74512;SDS011;62992;52.052;8.550;2022-12-04T03:22:19;33.58;;;13.45;;
74512;SDS011;62992;52.052;8.550;2022-12-04T03:25:06;36.17;;;14.27;;
74512;SDS011;62992;52.052;8.550;2022-12-04T03:31:07;32.05;;;12.75;;
74512;SDS011;62992;52.052;8.550;2022-12-04T03:33:52;31.05;;;12.05;;
74512;SDS011;62992;52.052;8.550;2022-12-04T03:36:55;34.22;;;11.68;;
74512;SDS011;62992;52.052;8.550;2022-12-04T03:39:49;38.25;;;12.25;;
74512;SDS011;62992;52.052;8.550;2022-12-04T03:42:39;31.70;;;10.90;;
74512;SDS011;62992;52.052;8.550;2022-12-04T03:48:43;35.45;;;12.43;;
74512;SDS011;62992;52.052;8.550;2022-12-04T03:51:42;36.28;;;12.68;;
74512;SDS011;62992;52.052;8.550;2022-12-04T03:54:35;31.60;;;11.68;;
74512;SDS011;62992;52.052;8.550;2022-12-04T03:57:26;33.78;;;12.00;;
74512;SDS011;62992;52.052;8.550;2022-12-04T04:00:15;31.98;;;11.98;;
74512;SDS011;62992;52.052;8.550;2022-12-04T04:03:34;31.67;;;11.32;;
74512;SDS011;62992;52.052;8.550;2022-12-04T04:06:22;31.27;;;12.20;;
74512;SDS011;62992;52.052;8.550;2022-12-04T04:09:09;35.05;;;11.25;;
74512;SDS011;62992;52.052;8.550;2022-12-04T04:12:08;33.03;;;12.13;;
74512;SDS011;62992;52.052;8.550;2022-12-04T04:15:00;30.25;;;11.95;;
74512;SDS011;62992;52.052;8.550;2022-12-04T04:18:07;26.55;;;10.70;;
74512;SDS011;62992;52.052;8.550;2022-12-04T04:21:10;33.97;;;12.32;;
74512;SDS011;62992;52.052;8.550;2022-12-04T04:24:24;32.40;;;10.68;;
74512;SDS011;62992;52.052;8.550;2022-12-04T04:27:18;25.05;;;10.95;;
74512;SDS011;62992;52.052;8.550;2022-12-04T04:30:03;32.58;;;12.32;;
74512;SDS011;62992;52.052;8.550;2022-12-04T04:35:52;30.58;;;10.82;;
74512;SDS011;62992;52.052;8.550;2022-12-04T04:38:48;33.85;;;11.98;;
74512;SDS011;62992;52.052;8.550;2022-12-04T04:41:51;28.25;;;10.55;;
74512;SDS011;62992;52.052;8.550;2022-12-04T04:44:43;32.58;;;9.85;;
74512;SDS011;62992;52.052;8.550;2022-12-04T04:53:20;30.45;;;10.60;;
74512;SDS011;62992;52.052;8.550;2022-12-04T04:56:07;25.77;;;9.75;;
74512;SDS011;62992;52.052;8.550;2022-12-04T04:58:52;29.50;;;10.93;;
74512;SDS011;62992;52.052;8.550;2022-12-04T05:01:37;27.73;;;10.02;;
74512;SDS011;62992;52.052;8.550;2022-12-04T05:04:21;27.38;;;11.05;;
74512;SDS011;62992;52.052;8.550;2022-12-04T05:07:05;25.83;;;8.80;;
74512;SDS011;62992;52.052;8.550;2022-12-04T05:09:49;25.70;;;9.88;;
74512;SDS011;62992;52.052;8.550;2022-12-04T05:12:33;27.80;;;10.07;;
74512;SDS011;62992;52.052;8.550;2022-12-04T05:15:18;28.30;;;10.18;;
74512;SDS011;62992;52.052;8.550;2022-12-04T05:18:02;25.50;;;10.25;;
74512;SDS011;62992;52.052;8.550;2022-12-04T05:20:46;25.95;;;10.07;;
74512;SDS011;62992;52.052;8.550;2022-12-04T05:23:30;27.67;;;10.98;;
74512;SDS011;62992;52.052;8.550;2022-12-04T05:26:15;24.08;;;9.20;;
74512;SDS011;62992;52.052;8.550;2022-12-04T05:28:59;27.17;;;8.48;;
74512;SDS011;62992;52.052;8.550;2022-12-04T05:31:43;26.75;;;9.55;;
74512;SDS011;62992;52.052;8.550;2022-12-04T05:34:27;26.55;;;9.27;;
74512;SDS011;62992;52.052;8.550;2022-12-04T05:37:11;22.05;;;9.13;;
74512;SDS011;62992;52.052;8.550;2022-12-04T05:39:55;29.70;;;8.82;;
74512;SDS011;62992;52.052;8.550;2022-12-04T05:42:39;20.67;;;8.65;;
74512;SDS011;62992;52.052;8.550;2022-12-04T05:45:22;25.98;;;8.93;;
74512;SDS011;62992;52.052;8.550;2022-12-04T05:48:06;23.95;;;10.27;;
74512;SDS011;62992;52.052;8.550;2022-12-04T05:50:51;15.93;;;6.53;;
74512;SDS011;62992;52.052;8.550;2022-12-04T05:53:35;23.65;;;9.75;;
74512;SDS011;62992;52.052;8.550;2022-12-04T05:56:20;25.70;;;10.25;;
74512;SDS011;62992;52.052;8.550;2022-12-04T05:59:05;24.80;;;9.57;;
74512;SDS011;62992;52.052;8.550;2022-12-04T06:01:48;22.27;;;8.65;;
74512;SDS011;62992;52.052;8.550;2022-12-04T06:04:33;19.95;;;9.25;;
74512;SDS011;62992;52.052;8.550;2022-12-04T06:07:17;24.25;;;8.45;;
74512;SDS011;62992;52.052;8.550;2022-12-04T06:10:01;23.88;;;8.88;;
74512;SDS011;62992;52.052;8.550;2022-12-04T06:12:44;20.98;;;9.23;;
74512;SDS011;62992;52.052;8.550;2022-12-04T06:15:29;23.95;;;8.85;;
74512;SDS011;62992;52.052;8.550;2022-12-04T06:18:12;18.65;;;7.40;;
74512;SDS011;62992;52.052;8.550;2022-12-04T06:20:57;20.52;;;7.95;;
74512;SDS011;62992;52.052;8.550;2022-12-04T06:23:41;22.23;;;8.32;;
74512;SDS011;62992;52.052;8.550;2022-12-04T06:26:26;17.27;;;7.25;;
74512;SDS011;62992;52.052;8.550;2022-12-04T06:29:11;20.05;;;8.32;;
74512;SDS011;62992;52.052;8.550;2022-12-04T06:31:55;21.95;;;8.75;;
74512;SDS011;62992;52.052;8.550;2022-12-04T06:34:39;18.17;;;7.88;;
74512;SDS011;62992;52.052;8.550;2022-12-04T06:37:24;13.38;;;6.55;;
74512;SDS011;62992;52.052;8.550;2022-12-04T06:40:08;23.27;;;8.73;;
74512;SDS011;62992;52.052;8.550;2022-12-04T06:42:52;21.20;;;8.25;;
74512;SDS011;62992;52.052;8.550;2022-12-04T06:45:36;16.17;;;6.78;;
74512;SDS011;62992;52.052;8.550;2022-12-04T06:48:21;15.73;;;7.22;;
74512;SDS011;62992;52.052;8.550;2022-12-04T06:51:06;16.30;;;7.68;;
74512;SDS011;62992;52.052;8.550;2022-12-04T06:53:52;13.75;;;6.05;;
74512;SDS011;62992;52.052;8.550;2022-12-04T06:56:36;20.65;;;8.15;;
74512;SDS011;62992;52.052;8.550;2022-12-04T06:59:20;22.25;;;7.78;;
74512;SDS011;62992;52.052;8.550;2022-12-04T07:02:05;18.10;;;7.97;;
74512;SDS011;62992;52.052;8.550;2022-12-04T07:04:52;18.50;;;7.80;;
74512;SDS011;62992;52.052;8.550;2022-12-04T07:07:38;20.23;;;7.65;;
74512;SDS011;62992;52.052;8.550;2022-12-04T07:10:23;17.38;;;7.30;;
74512;SDS011;62992;52.052;8.550;2022-12-04T07:13:07;17.10;;;7.93;;
74512;SDS011;62992;52.052;8.550;2022-12-04T07:15:52;17.75;;;7.65;;
74512;SDS011;62992;52.052;8.550;2022-12-04T07:18:36;18.70;;;8.55;;
74512;SDS011;62992;52.052;8.550;2022-12-04T07:21:21;22.60;;;8.90;;
74512;SDS011;62992;52.052;8.550;2022-12-04T07:24:13;16.95;;;8.50;;
74512;SDS011;62992;52.052;8.550;2022-12-04T07:26:58;19.90;;;8.15;;
74512;SDS011;62992;52.052;8.550;2022-12-04T07:29:42;22.92;;;9.45;;
74512;SDS011;62992;52.052;8.550;2022-12-04T07:32:26;17.67;;;8.07;;
74512;SDS011;62992;52.052;8.550;2022-12-04T07:35:10;20.88;;;9.07;;
74512;SDS011;62992;52.052;8.550;2022-12-04T07:37:54;20.98;;;8.70;;
74512;SDS011;62992;52.052;8.550;2022-12-04T07:40:38;19.48;;;9.18;;
74512;SDS011;62992;52.052;8.550;2022-12-04T07:43:23;16.52;;;6.72;;
74512;SDS011;62992;52.052;8.550;2022-12-04T07:46:09;21.83;;;8.98;;
74512;SDS011;62992;52.052;8.550;2022-12-04T07:48:56;27.33;;;10.23;;
74512;SDS011;62992;52.052;8.550;2022-12-04T07:51:41;21.98;;;8.05;;
74512;SDS011;62992;52.052;8.550;2022-12-04T07:54:25;22.40;;;8.00;;
74512;SDS011;62992;52.052;8.550;2022-12-04T07:57:09;22.08;;;8.07;;
74512;SDS011;62992;52.052;8.550;2022-12-04T07:59:53;24.42;;;10.23;;
74512;SDS011;62992;52.052;8.550;2022-12-04T08:02:37;22.02;;;9.50;;
74512;SDS011;62992;52.052;8.550;2022-12-04T08:05:21;22.45;;;9.38;;
74512;SDS011;62992;52.052;8.550;2022-12-04T08:08:06;25.75;;;9.70;;
74512;SDS011;62992;52.052;8.550;2022-12-04T08:10:50;23.90;;;9.55;;
74512;SDS011;62992;52.052;8.550;2022-12-04T08:13:35;24.23;;;8.80;;
74512;SDS011;62992;52.052;8.550;2022-12-04T08:16:19;21.02;;;8.50;;
74512;SDS011;62992;52.052;8.550;2022-12-04T08:19:03;19.05;;;9.02;;
74512;SDS011;62992;52.052;8.550;2022-12-04T08:21:48;20.67;;;8.77;;
74512;SDS011;62992;52.052;8.550;2022-12-04T08:24:32;25.30;;;10.48;;
74512;SDS011;62992;52.052;8.550;2022-12-04T08:27:16;21.42;;;9.02;;
74512;SDS011;62992;52.052;8.550;2022-12-04T08:30:00;18.42;;;8.88;;
74512;SDS011;62992;52.052;8.550;2022-12-04T08:32:44;23.70;;;10.45;;
74512;SDS011;62992;52.052;8.550;2022-12-04T08:35:28;23.58;;;10.43;;
74512;SDS011;62992;52.052;8.550;2022-12-04T08:38:13;23.98;;;9.07;;
74512;SDS011;62992;52.052;8.550;2022-12-04T08:41:00;25.25;;;10.15;;
74512;SDS011;62992;52.052;8.550;2022-12-04T08:43:46;29.73;;;11.90;;
74512;SDS011;62992;52.052;8.550;2022-12-04T08:46:30;24.42;;;11.05;;
74512;SDS011;62992;52.052;8.550;2022-12-04T08:49:14;35.20;;;12.30;;
74512;SDS011;62992;52.052;8.550;2022-12-04T08:51:58;26.75;;;10.95;;
74512;SDS011;62992;52.052;8.550;2022-12-04T08:54:42;28.42;;;10.43;;
74512;SDS011;62992;52.052;8.550;2022-12-04T08:57:27;33.83;;;11.00;;
74512;SDS011;62992;52.052;8.550;2022-12-04T09:00:11;27.45;;;11.82;;
74512;SDS011;62992;52.052;8.550;2022-12-04T09:02:56;29.08;;;12.38;;
74512;SDS011;62992;52.052;8.550;2022-12-04T09:05:40;29.95;;;11.88;;
74512;SDS011;62992;52.052;8.550;2022-12-04T09:08:25;32.38;;;11.90;;
74512;SDS011;62992;52.052;8.550;2022-12-04T09:11:10;33.65;;;13.05;;
74512;SDS011;62992;52.052;8.550;2022-12-04T09:13:56;31.08;;;11.95;;
74512;SDS011;62992;52.052;8.550;2022-12-04T09:16:40;33.72;;;14.10;;
74512;SDS011;62992;52.052;8.550;2022-12-04T09:19:24;33.28;;;12.27;;
74512;SDS011;62992;52.052;8.550;2022-12-04T09:22:08;34.10;;;12.00;;
74512;SDS011;62992;52.052;8.550;2022-12-04T09:24:53;32.80;;;14.35;;
74512;SDS011;62992;52.052;8.550;2022-12-04T09:27:37;31.50;;;13.48;;
74512;SDS011;62992;52.052;8.550;2022-12-04T09:30:24;36.30;;;12.93;;
74512;SDS011;62992;52.052;8.550;2022-12-04T09:33:08;33.03;;;14.30;;
74512;SDS011;62992;52.052;8.550;2022-12-04T09:35:52;34.17;;;13.75;;
74512;SDS011;62992;52.052;8.550;2022-12-04T09:38:37;32.03;;;12.63;;
74512;SDS011;62992;52.052;8.550;2022-12-04T09:41:28;26.65;;;11.80;;
74512;SDS011;62992;52.052;8.550;2022-12-04T09:47:22;32.17;;;13.73;;
74512;SDS011;62992;52.052;8.550;2022-12-04T09:50:22;35.33;;;12.77;;
74512;SDS011;62992;52.052;8.550;2022-12-04T09:53:27;21.48;;;10.15;;
74512;SDS011;62992;52.052;8.550;2022-12-04T09:56:20;36.90;;;13.50;;
74512;SDS011;62992;52.052;8.550;2022-12-04T10:05:27;27.83;;;12.70;;
74512;SDS011;62992;52.052;8.550;2022-12-04T10:08:22;32.05;;;12.80;;
74512;SDS011;62992;52.052;8.550;2022-12-04T10:11:21;34.75;;;14.30;;
74512;SDS011;62992;52.052;8.550;2022-12-04T10:26:50;30.23;;;12.95;;
74512;SDS011;62992;52.052;8.550;2022-12-04T10:29:37;41.53;;;16.38;;
74512;SDS011;62992;52.052;8.550;2022-12-04T10:32:25;42.40;;;15.13;;
74512;SDS011;62992;52.052;8.550;2022-12-04T10:35:24;41.17;;;15.43;;
74512;SDS011;62992;52.052;8.550;2022-12-04T10:41:42;34.83;;;13.48;;
74512;SDS011;62992;52.052;8.550;2022-12-04T10:44:37;33.85;;;14.60;;
74512;SDS011;62992;52.052;8.550;2022-12-04T10:47:21;35.75;;;15.32;;
74512;SDS011;62992;52.052;8.550;2022-12-04T10:50:17;34.50;;;13.55;;
74512;SDS011;62992;52.052;8.550;2022-12-04T10:53:03;36.80;;;13.13;;
74512;SDS011;62992;52.052;8.550;2022-12-04T10:55:48;31.75;;;13.00;;
74512;SDS011;62992;52.052;8.550;2022-12-04T10:58:32;36.65;;;13.68;;
74512;SDS011;62992;52.052;8.550;2022-12-04T11:01:16;36.92;;;14.77;;
74512;SDS011;62992;52.052;8.550;2022-12-04T11:04:08;39.70;;;15.13;;
74512;SDS011;62992;52.052;8.550;2022-12-04T11:07:07;42.65;;;16.05;;
74512;SDS011;62992;52.052;8.550;2022-12-04T11:10:02;34.67;;;14.45;;
74512;SDS011;62992;52.052;8.550;2022-12-04T11:15:43;41.20;;;15.57;;
74512;SDS011;62992;52.052;8.550;2022-12-04T11:18:34;38.35;;;15.50;;
74512;SDS011;62992;52.052;8.550;2022-12-04T11:21:30;41.97;;;15.05;;
74512;SDS011;62992;52.052;8.550;2022-12-04T11:24:20;37.60;;;15.43;;
74512;SDS011;62992;52.052;8.550;2022-12-04T11:27:14;41.33;;;16.27;;
74512;SDS011;62992;52.052;8.550;2022-12-04T11:30:07;38.00;;;14.82;;
74512;SDS011;62992;52.052;8.550;2022-12-04T11:32:56;41.72;;;15.48;;
74512;SDS011;62992;52.052;8.550;2022-12-04T11:35:41;45.50;;;15.75;;
74512;SDS011;62992;52.052;8.550;2022-12-04T11:38:25;39.08;;;17.45;;
74512;SDS011;62992;52.052;8.550;2022-12-04T11:41:25;42.00;;;16.20;;
74512;SDS011;62992;52.052;8.550;2022-12-04T11:44:21;38.63;;;15.02;;
74512;SDS011;62992;52.052;8.550;2022-12-04T11:47:15;36.28;;;13.63;;
74512;SDS011;62992;52.052;8.550;2022-12-04T11:50:12;36.47;;;14.38;;
74512;SDS011;62992;52.052;8.550;2022-12-04T11:57:08;40.72;;;16.65;;
74512;SDS011;62992;52.052;8.550;2022-12-04T12:05:29;37.03;;;13.77;;
74512;SDS011;62992;52.052;8.550;2022-12-04T12:11:33;26.38;;;10.93;;
74512;SDS011;62992;52.052;8.550;2022-12-04T12:17:49;36.95;;;13.95;;
74512;SDS011;62992;52.052;8.550;2022-12-04T12:21:42;40.95;;;16.73;;
74512;SDS011;62992;52.052;8.550;2022-12-04T12:29:57;39.88;;;15.30;;
74512;SDS011;62992;52.052;8.550;2022-12-04T12:35:40;40.38;;;15.40;;
74512;SDS011;62992;52.052;8.550;2022-12-04T12:38:37;37.20;;;15.73;;
74512;SDS011;62992;52.052;8.550;2022-12-04T12:41:37;41.65;;;15.07;;
74512;SDS011;62992;52.052;8.550;2022-12-04T12:47:19;39.67;;;16.23;;
74512;SDS011;62992;52.052;8.550;2022-12-04T12:50:15;25.35;;;11.85;;
74512;SDS011;62992;52.052;8.550;2022-12-04T12:53:08;41.45;;;15.90;;
74512;SDS011;62992;52.052;8.550;2022-12-04T12:55:57;37.50;;;16.60;;
74512;SDS011;62992;52.052;8.550;2022-12-04T12:58:47;42.05;;;15.93;;
74512;SDS011;62992;52.052;8.550;2022-12-04T13:04:51;40.67;;;15.10;;
74512;SDS011;62992;52.052;8.550;2022-12-04T13:14:02;36.00;;;15.98;;
74512;SDS011;62992;52.052;8.550;2022-12-04T13:16:52;38.00;;;15.55;;
74512;SDS011;62992;52.052;8.550;2022-12-04T13:19:49;36.88;;;15.88;;
74512;SDS011;62992;52.052;8.550;2022-12-04T13:22:45;36.05;;;14.98;;
74512;SDS011;62992;52.052;8.550;2022-12-04T13:32:00;37.60;;;15.55;;
74512;SDS011;62992;52.052;8.550;2022-12-04T13:34:55;41.85;;;16.27;;
74512;SDS011;62992;52.052;8.550;2022-12-04T13:40:45;43.28;;;17.73;;
74512;SDS011;62992;52.052;8.550;2022-12-04T13:52:01;41.83;;;16.40;;
74512;SDS011;62992;52.052;8.550;2022-12-04T13:54:57;41.35;;;16.40;;
74512;SDS011;62992;52.052;8.550;2022-12-04T13:57:51;38.72;;;15.48;;
74512;SDS011;62992;52.052;8.550;2022-12-04T14:00:40;42.83;;;16.90;;
74512;SDS011;62992;52.052;8.550;2022-12-04T14:06:38;31.95;;;14.88;;
74512;SDS011;62992;52.052;8.550;2022-12-04T14:09:26;42.67;;;17.13;;
74512;SDS011;62992;52.052;8.550;2022-12-04T14:12:23;43.20;;;15.73;;
74512;SDS011;62992;52.052;8.550;2022-12-04T14:15:21;39.95;;;16.08;;
74512;SDS011;62992;52.052;8.550;2022-12-04T14:21:02;40.95;;;15.38;;
74512;SDS011;62992;52.052;8.550;2022-12-04T14:23:48;45.38;;;17.60;;
74512;SDS011;62992;52.052;8.550;2022-12-04T14:26:33;42.13;;;16.60;;
74512;SDS011;62992;52.052;8.550;2022-12-04T14:32:13;37.78;;;16.42;;
74512;SDS011;62992;52.052;8.550;2022-12-04T14:35:01;41.28;;;17.27;;
74512;SDS011;62992;52.052;8.550;2022-12-04T14:37:50;44.88;;;17.67;;
74512;SDS011;62992;52.052;8.550;2022-12-04T14:40:43;45.00;;;16.98;;
74512;SDS011;62992;52.052;8.550;2022-12-04T14:43:36;39.97;;;16.75;;
74512;SDS011;62992;52.052;8.550;2022-12-04T14:52:37;43.08;;;16.38;;
74512;SDS011;62992;52.052;8.550;2022-12-04T14:58:36;35.92;;;14.90;;
74512;SDS011;62992;52.052;8.550;2022-12-04T15:01:22;36.13;;;13.52;;
74512;SDS011;62992;52.052;8.550;2022-12-04T15:04:22;37.50;;;14.73;;
74512;SDS011;62992;52.052;8.550;2022-12-04T15:07:17;36.22;;;13.43;;
74512;SDS011;62992;52.052;8.550;2022-12-04T15:10:27;37.50;;;14.48;;
74512;SDS011;62992;52.052;8.550;2022-12-04T15:13:33;34.92;;;15.75;;
74512;SDS011;62992;52.052;8.550;2022-12-04T15:16:21;38.05;;;14.85;;
74512;SDS011;62992;52.052;8.550;2022-12-04T15:19:12;35.75;;;15.65;;
74512;SDS011;62992;52.052;8.550;2022-12-04T15:21:59;29.00;;;14.85;;
74512;SDS011;62992;52.052;8.550;2022-12-04T15:24:45;35.70;;;15.18;;
74512;SDS011;62992;52.052;8.550;2022-12-04T15:27:29;41.30;;;15.77;;
74512;SDS011;62992;52.052;8.550;2022-12-04T15:30:17;36.80;;;14.63;;
74512;SDS011;62992;52.052;8.550;2022-12-04T15:33:04;38.58;;;16.80;;
74512;SDS011;62992;52.052;8.550;2022-12-04T15:35:53;37.92;;;16.95;;
74512;SDS011;62992;52.052;8.550;2022-12-04T15:38:48;38.40;;;16.08;;
74512;SDS011;62992;52.052;8.550;2022-12-04T15:41:34;37.42;;;15.70;;
74512;SDS011;62992;52.052;8.550;2022-12-04T15:44:27;32.85;;;14.40;;
74512;SDS011;62992;52.052;8.550;2022-12-04T15:47:15;36.25;;;14.35;;
74512;SDS011;62992;52.052;8.550;2022-12-04T15:50:07;36.47;;;15.20;;
74512;SDS011;62992;52.052;8.550;2022-12-04T15:53:13;36.45;;;13.52;;
74512;SDS011;62992;52.052;8.550;2022-12-04T15:56:07;37.97;;;14.20;;
74512;SDS011;62992;52.052;8.550;2022-12-04T15:58:59;37.70;;;16.02;;
74512;SDS011;62992;52.052;8.550;2022-12-04T16:01:44;36.13;;;14.73;;
74512;SDS011;62992;52.052;8.550;2022-12-04T16:04:28;37.20;;;13.80;;
74512;SDS011;62992;52.052;8.550;2022-12-04T16:07:19;37.25;;;14.93;;
74512;SDS011;62992;52.052;8.550;2022-12-04T16:10:18;34.10;;;14.35;;
74512;SDS011;62992;52.052;8.550;2022-12-04T16:13:25;36.30;;;14.60;;
74512;SDS011;62992;52.052;8.550;2022-12-04T16:16:17;34.22;;;13.63;;
74512;SDS011;62992;52.052;8.550;2022-12-04T16:19:05;37.28;;;14.38;;
74512;SDS011;62992;52.052;8.550;2022-12-04T16:21:55;30.80;;;14.77;;
74512;SDS011;62992;52.052;8.550;2022-12-04T16:24:40;31.67;;;13.68;;
74512;SDS011;62992;52.052;8.550;2022-12-04T16:27:24;29.98;;;13.07;;
74512;SDS011;62992;52.052;8.550;2022-12-04T16:30:08;34.67;;;15.05;;
74512;SDS011;62992;52.052;8.550;2022-12-04T16:32:55;34.50;;;15.40;;
74512;SDS011;62992;52.052;8.550;2022-12-04T16:35:40;34.80;;;13.52;;
74512;SDS011;62992;52.052;8.550;2022-12-04T16:38:24;28.25;;;12.30;;
74512;SDS011;62992;52.052;8.550;2022-12-04T16:41:15;31.60;;;13.75;;
74512;SDS011;62992;52.052;8.550;2022-12-04T16:44:01;36.25;;;14.52;;
74512;SDS011;62992;52.052;8.550;2022-12-04T16:46:45;32.63;;;13.10;;
74512;SDS011;62992;52.052;8.550;2022-12-04T16:49:29;34.53;;;13.32;;
74512;SDS011;62992;52.052;8.550;2022-12-04T16:52:13;34.63;;;13.50;;
74512;SDS011;62992;52.052;8.550;2022-12-04T16:54:57;33.95;;;14.02;;
74512;SDS011;62992;52.052;8.550;2022-12-04T16:57:41;35.95;;;13.32;;
74512;SDS011;62992;52.052;8.550;2022-12-04T17:00:25;34.22;;;14.45;;
74512;SDS011;62992;52.052;8.550;2022-12-04T17:03:15;36.03;;;15.20;;
74512;SDS011;62992;52.052;8.550;2022-12-04T17:06:16;30.17;;;13.00;;
74512;SDS011;62992;52.052;8.550;2022-12-04T17:09:01;31.48;;;12.88;;
74512;SDS011;62992;52.052;8.550;2022-12-04T17:11:45;30.85;;;13.27;;
74512;SDS011;62992;52.052;8.550;2022-12-04T17:14:29;33.15;;;13.68;;
74512;SDS011;62992;52.052;8.550;2022-12-04T17:17:13;35.45;;;15.25;;
74512;SDS011;62992;52.052;8.550;2022-12-04T17:19:58;32.90;;;14.23;;
74512;SDS011;62992;52.052;8.550;2022-12-04T17:22:42;32.58;;;14.02;;
74512;SDS011;62992;52.052;8.550;2022-12-04T17:25:27;33.03;;;14.30;;
74512;SDS011;62992;52.052;8.550;2022-12-04T17:28:12;35.40;;;15.35;;
74512;SDS011;62992;52.052;8.550;2022-12-04T17:30:56;29.27;;;12.98;;
74512;SDS011;62992;52.052;8.550;2022-12-04T17:33:41;30.67;;;13.15;;
74512;SDS011;62992;52.052;8.550;2022-12-04T17:36:26;30.67;;;12.60;;
74512;SDS011;62992;52.052;8.550;2022-12-04T17:39:10;32.95;;;13.52;;
74512;SDS011;62992;52.052;8.550;2022-12-04T17:41:56;32.55;;;12.68;;
74512;SDS011;62992;52.052;8.550;2022-12-04T17:44:40;33.50;;;14.55;;
74512;SDS011;62992;52.052;8.550;2022-12-04T17:47:24;22.60;;;9.73;;
74512;SDS011;62992;52.052;8.550;2022-12-04T17:50:08;29.98;;;14.57;;
74512;SDS011;62992;52.052;8.550;2022-12-04T17:52:54;25.33;;;11.63;;
74512;SDS011;62992;52.052;8.550;2022-12-04T17:55:38;29.55;;;12.27;;
74512;SDS011;62992;52.052;8.550;2022-12-04T17:58:22;31.83;;;14.02;;
74512;SDS011;62992;52.052;8.550;2022-12-04T18:01:07;32.30;;;13.45;;
74512;SDS011;62992;52.052;8.550;2022-12-04T18:03:53;29.30;;;13.68;;
74512;SDS011;62992;52.052;8.550;2022-12-04T18:06:40;36.00;;;13.50;;
74512;SDS011;62992;52.052;8.550;2022-12-04T18:09:26;31.30;;;12.88;;
74512;SDS011;62992;52.052;8.550;2022-12-04T18:12:10;28.40;;;12.82;;
74512;SDS011;62992;52.052;8.550;2022-12-04T18:14:55;28.55;;;13.43;;
74512;SDS011;62992;52.052;8.550;2022-12-04T18:17:39;29.13;;;11.45;;
74512;SDS011;62992;52.052;8.550;2022-12-04T18:20:23;31.25;;;12.38;;
74512;SDS011;62992;52.052;8.550;2022-12-04T18:23:06;30.13;;;12.80;;
74512;SDS011;62992;52.052;8.550;2022-12-04T18:25:58;27.95;;;12.02;;
74512;SDS011;62992;52.052;8.550;2022-12-04T18:28:43;31.38;;;11.38;;
74512;SDS011;62992;52.052;8.550;2022-12-04T18:31:28;28.73;;;14.07;;
74512;SDS011;62992;52.052;8.550;2022-12-04T18:34:12;32.65;;;12.52;;
74512;SDS011;62992;52.052;8.550;2022-12-04T18:36:57;27.88;;;12.05;;
74512;SDS011;62992;52.052;8.550;2022-12-04T18:39:42;28.35;;;11.50;;